sensor_id;sensor_type;location;lat;lon;timestamp;pressure;altitude;pressure_sealevel;temperature;humidity
8756;BME280;4414;42.670;23.228;2022-08-18T00:02:02;44900.69;;;-137.01;67.93
8756;BME280;4414;42.670;23.228;2022-08-18T00:04:30;44904.50;;;-137.01;68.52
8756;BME280;4414;42.670;23.228;2022-08-18T00:06:57;44860.50;;;-137.01;67.67
8756;BME280;4414;42.670;23.228;2022-08-18T00:09:24;44889.19;;;-137.01;68.08
8756;BME280;4414;42.670;23.228;2022-08-18T00:11:51;44917.91;;;-137.01;68.13
8756;BME280;4414;42.670;23.228;2022-08-18T00:14:19;44875.81;;;-137.01;67.16
8756;BME280;4414;42.670;23.228;2022-08-18T00:16:48;44847.13;;;-137.01;67.86
8756;BME280;4414;42.670;23.228;2022-08-18T00:19:16;44910.25;;;-137.01;67.94
8756;BME280;4414;42.670;23.228;2022-08-18T00:21:42;44873.91;;;-137.01;68.94
8756;BME280;4414;42.670;23.228;2022-08-18T00:24:09;44875.81;;;-137.01;69.03
8756;BME280;4414;42.670;23.228;2022-08-18T00:26:36;44864.34;;;-137.01;69.80
8756;BME280;4414;42.670;23.228;2022-08-18T00:29:03;44881.56;;;-137.01;69.65
8756;BME280;4414;42.670;23.228;2022-08-18T00:31:30;44894.94;;;-137.01;68.86
8756;BME280;4414;42.670;23.228;2022-08-18T00:33:59;44887.28;;;-137.01;70.21
8756;BME280;4414;42.670;23.228;2022-08-18T00:36:26;44877.72;;;-137.01;70.24
8756;BME280;4414;42.670;23.228;2022-08-18T00:38:53;44860.50;;;-137.01;70.38
8756;BME280;4414;42.670;23.228;2022-08-18T00:41:20;44864.34;;;-137.01;70.73
8756;BME280;4414;42.670;23.228;2022-08-18T00:43:51;44872.00;;;-137.01;70.72
8756;BME280;4414;42.670;23.228;2022-08-18T00:46:22;44891.13;;;-137.01;70.35
8756;BME280;4414;42.670;23.228;2022-08-18T00:48:50;44898.75;;;-137.01;70.92
8756;BME280;4414;42.670;23.228;2022-08-18T00:51:22;44891.13;;;-137.01;70.24
8756;BME280;4414;42.670;23.228;2022-08-18T00:53:55;44875.81;;;-137.01;71.24
8756;BME280;4414;42.670;23.228;2022-08-18T00:56:27;44875.81;;;-137.01;70.60
8756;BME280;4414;42.670;23.228;2022-08-18T00:58:58;44864.34;;;-137.01;69.68
8756;BME280;4414;42.670;23.228;2022-08-18T01:01:29;44875.81;;;-137.01;68.83
8756;BME280;4414;42.670;23.228;2022-08-18T01:03:59;44894.94;;;-137.01;69.32
8756;BME280;4414;42.670;23.228;2022-08-18T01:06:36;44875.81;;;-137.01;69.67
8756;BME280;4414;42.670;23.228;2022-08-18T01:09:05;44891.13;;;-137.01;70.15
8756;BME280;4414;42.670;23.228;2022-08-18T01:11:33;44873.91;;;-137.01;70.75
8756;BME280;4414;42.670;23.228;2022-08-18T01:14:01;44883.47;;;-137.01;71.65
8756;BME280;4414;42.670;23.228;2022-08-18T01:16:28;44872.00;;;-137.01;71.96
8756;BME280;4414;42.670;23.228;2022-08-18T01:19:12;44889.19;;;-137.01;71.89
8756;BME280;4414;42.670;23.228;2022-08-18T01:22:04;44879.63;;;-137.01;71.56
8756;BME280;4414;42.670;23.228;2022-08-18T01:24:35;44893.03;;;-137.01;71.25
8756;BME280;4414;42.670;23.228;2022-08-18T01:27:21;44898.75;;;-137.01;71.69
8756;BME280;4414;42.670;23.228;2022-08-18T01:29:48;44885.38;;;-137.01;71.25
8756;BME280;4414;42.670;23.228;2022-08-18T01:32:16;44868.16;;;-137.01;71.53
8756;BME280;4414;42.670;23.228;2022-08-18T01:34:45;44891.13;;;-137.01;71.30
8756;BME280;4414;42.670;23.228;2022-08-18T01:37:15;44866.25;;;-137.01;71.76
8756;BME280;4414;42.670;23.228;2022-08-18T01:39:44;44908.34;;;-137.01;72.15
8756;BME280;4414;42.670;23.228;2022-08-18T01:42:13;44866.25;;;-137.01;72.73
8756;BME280;4414;42.670;23.228;2022-08-18T01:44:41;44875.81;;;-137.01;71.94
8756;BME280;4414;42.670;23.228;2022-08-18T01:47:09;44868.16;;;-137.01;72.01
8756;BME280;4414;42.670;23.228;2022-08-18T01:49:37;44872.00;;;-137.01;72.48
8756;BME280;4414;42.670;23.228;2022-08-18T01:52:05;44887.28;;;-137.01;72.21
8756;BME280;4414;42.670;23.228;2022-08-18T01:54:32;44891.13;;;-137.01;72.08
8756;BME280;4414;42.670;23.228;2022-08-18T01:57:00;44893.03;;;-137.01;71.76
8756;BME280;4414;42.670;23.228;2022-08-18T01:59:28;44845.22;;;-137.01;71.63
8756;BME280;4414;42.670;23.228;2022-08-18T02:01:55;44883.47;;;-137.01;71.33
8756;BME280;4414;42.670;23.228;2022-08-18T02:04:27;44872.00;;;-137.01;71.81
8756;BME280;4414;42.670;23.228;2022-08-18T02:06:57;44894.94;;;-137.01;71.91
8756;BME280;4414;42.670;23.228;2022-08-18T02:09:24;44870.06;;;-137.01;71.29
8756;BME280;4414;42.670;23.228;2022-08-18T02:11:51;44881.56;;;-137.01;70.75
8756;BME280;4414;42.670;23.228;2022-08-18T02:14:19;44904.50;;;-137.01;71.44
8756;BME280;4414;42.670;23.228;2022-08-18T02:16:46;44879.63;;;-137.01;72.29
8756;BME280;4414;42.670;23.228;2022-08-18T02:19:12;44885.38;;;-137.01;73.05
8756;BME280;4414;42.670;23.228;2022-08-18T02:21:39;44894.94;;;-137.01;73.57
8756;BME280;4414;42.670;23.228;2022-08-18T02:24:06;44883.47;;;-137.01;73.79
8756;BME280;4414;42.670;23.228;2022-08-18T02:26:33;44875.81;;;-137.01;73.93
8756;BME280;4414;42.670;23.228;2022-08-18T02:28:59;44887.28;;;-137.01;74.51
8756;BME280;4414;42.670;23.228;2022-08-18T02:31:27;44872.00;;;-137.01;74.22
8756;BME280;4414;42.670;23.228;2022-08-18T02:33:54;44883.47;;;-137.01;74.65
8756;BME280;4414;42.670;23.228;2022-08-18T02:36:22;44870.06;;;-137.01;74.74
8756;BME280;4414;42.670;23.228;2022-08-18T02:38:48;44858.59;;;-137.01;75.16
8756;BME280;4414;42.670;23.228;2022-08-18T02:41:15;44891.13;;;-137.01;74.16
8756;BME280;4414;42.670;23.228;2022-08-18T02:43:42;44883.47;;;-137.01;73.77
8756;BME280;4414;42.670;23.228;2022-08-18T02:46:09;44887.28;;;-137.01;74.04
8756;BME280;4414;42.670;23.228;2022-08-18T02:48:37;44881.56;;;-137.01;73.50
8756;BME280;4414;42.670;23.228;2022-08-18T02:51:06;44891.13;;;-137.01;73.19
8756;BME280;4414;42.670;23.228;2022-08-18T02:53:35;44894.94;;;-137.01;73.10
8756;BME280;4414;42.670;23.228;2022-08-18T02:56:05;44877.72;;;-137.01;72.93
8756;BME280;4414;42.670;23.228;2022-08-18T02:58:51;44891.13;;;-137.01;72.51
8756;BME280;4414;42.670;23.228;2022-08-18T03:01:19;44898.75;;;-137.01;73.50
8756;BME280;4414;42.670;23.228;2022-08-18T03:03:47;44887.28;;;-137.01;73.86
8756;BME280;4414;42.670;23.228;2022-08-18T03:06:15;44893.03;;;-137.01;73.74
8756;BME280;4414;42.670;23.228;2022-08-18T03:08:42;44935.09;;;-137.01;73.85
8756;BME280;4414;42.670;23.228;2022-08-18T03:11:13;44891.13;;;-137.01;74.17
8756;BME280;4414;42.670;23.228;2022-08-18T03:13:40;44891.13;;;-137.01;74.13
8756;BME280;4414;42.670;23.228;2022-08-18T03:16:07;44891.13;;;-137.01;74.85
8756;BME280;4414;42.670;23.228;2022-08-18T03:18:34;44875.81;;;-137.01;74.54
8756;BME280;4414;42.670;23.228;2022-08-18T03:21:05;44873.91;;;-137.01;74.94
8756;BME280;4414;42.670;23.228;2022-08-18T03:23:32;44883.47;;;-137.01;74.94
8756;BME280;4414;42.670;23.228;2022-08-18T03:25:58;44893.03;;;-137.01;75.26
8756;BME280;4414;42.670;23.228;2022-08-18T03:28:25;44900.69;;;-137.01;75.71
8756;BME280;4414;42.670;23.228;2022-08-18T03:30:53;44891.13;;;-137.01;75.94
8756;BME280;4414;42.670;23.228;2022-08-18T03:33:20;44883.47;;;-137.01;75.54
8756;BME280;4414;42.670;23.228;2022-08-18T03:35:46;44860.50;;;-137.01;76.38
8756;BME280;4414;42.670;23.228;2022-08-18T03:38:15;44875.81;;;-137.01;76.41
8756;BME280;4414;42.670;23.228;2022-08-18T03:40:41;44872.00;;;-137.01;76.46
8756;BME280;4414;42.670;23.228;2022-08-18T03:43:08;44864.34;;;-137.01;76.61
8756;BME280;4414;42.670;23.228;2022-08-18T03:45:35;44879.63;;;-137.01;76.58
8756;BME280;4414;42.670;23.228;2022-08-18T03:48:02;44864.34;;;-137.01;75.05
8756;BME280;4414;42.670;23.228;2022-08-18T03:50:29;44891.13;;;-137.01;75.84
8756;BME280;4414;42.670;23.228;2022-08-18T03:52:56;44875.81;;;-137.01;76.22
8756;BME280;4414;42.670;23.228;2022-08-18T03:55:26;44872.00;;;-137.01;75.75
8756;BME280;4414;42.670;23.228;2022-08-18T03:57:57;44862.44;;;-137.01;76.20
8756;BME280;4414;42.670;23.228;2022-08-18T04:00:24;44891.13;;;-137.01;75.23
8756;BME280;4414;42.670;23.228;2022-08-18T04:02:51;44875.81;;;-137.01;74.58
8756;BME280;4414;42.670;23.228;2022-08-18T04:05:18;44872.00;;;-137.01;74.21
8756;BME280;4414;42.670;23.228;2022-08-18T04:07:45;44877.72;;;-137.01;73.71
8756;BME280;4414;42.670;23.228;2022-08-18T04:10:12;44914.06;;;-137.01;72.88
8756;BME280;4414;42.670;23.228;2022-08-18T04:12:41;44870.06;;;-137.01;72.99
8756;BME280;4414;42.670;23.228;2022-08-18T04:15:08;44872.00;;;-137.01;72.59
8756;BME280;4414;42.670;23.228;2022-08-18T04:17:35;44894.94;;;-137.01;70.92
8756;BME280;4414;42.670;23.228;2022-08-18T04:20:03;44875.81;;;-137.01;70.69
8756;BME280;4414;42.670;23.228;2022-08-18T04:22:29;44898.75;;;-137.01;70.61
8756;BME280;4414;42.670;23.228;2022-08-18T04:24:58;44896.84;;;-137.01;69.55
8756;BME280;4414;42.670;23.228;2022-08-18T04:27:26;44894.94;;;-137.01;70.04
8756;BME280;4414;42.670;23.228;2022-08-18T04:29:54;44881.56;;;-137.01;68.47
8756;BME280;4414;42.670;23.228;2022-08-18T04:32:22;44917.91;;;-137.01;68.14
8756;BME280;4414;42.670;23.228;2022-08-18T04:34:48;44872.00;;;-137.01;67.53
8756;BME280;4414;42.670;23.228;2022-08-18T04:37:15;44891.13;;;-137.01;68.12
8756;BME280;4414;42.670;23.228;2022-08-18T04:39:42;44919.81;;;-137.01;70.12
8756;BME280;4414;42.670;23.228;2022-08-18T04:42:09;44908.34;;;-137.01;71.73
8756;BME280;4414;42.670;23.228;2022-08-18T04:44:36;44906.41;;;-137.01;71.08
8756;BME280;4414;42.670;23.228;2022-08-18T04:47:05;44933.19;;;-137.01;70.00
8756;BME280;4414;42.670;23.228;2022-08-18T04:49:32;44896.84;;;-137.01;68.57
8756;BME280;4414;42.670;23.228;2022-08-18T04:51:59;44891.13;;;-137.01;67.07
8756;BME280;4414;42.670;23.228;2022-08-18T04:54:43;44902.59;;;-137.01;65.77
8756;BME280;4414;42.670;23.228;2022-08-18T04:57:11;44906.41;;;-137.01;66.42
8756;BME280;4414;42.670;23.228;2022-08-18T04:59:39;44919.81;;;-137.01;65.11
8756;BME280;4414;42.670;23.228;2022-08-18T05:02:08;44908.34;;;-137.01;62.98
8756;BME280;4414;42.670;23.228;2022-08-18T05:04:36;44904.50;;;-137.01;65.44
8756;BME280;4414;42.670;23.228;2022-08-18T05:07:04;44921.72;;;-137.01;62.41
8756;BME280;4414;42.670;23.228;2022-08-18T05:09:31;44900.69;;;-137.01;64.39
8756;BME280;4414;42.670;23.228;2022-08-18T05:11:58;44910.25;;;-137.01;61.00
8756;BME280;4414;42.670;23.228;2022-08-18T05:14:25;44925.53;;;-137.01;60.93
8756;BME280;4414;42.670;23.228;2022-08-18T05:16:51;44914.06;;;-137.01;61.26
8756;BME280;4414;42.670;23.228;2022-08-18T05:19:20;44937.03;;;-137.01;63.72
8756;BME280;4414;42.670;23.228;2022-08-18T05:21:49;44910.25;;;-137.01;62.86
8756;BME280;4414;42.670;23.228;2022-08-18T05:24:18;44950.41;;;-137.01;62.28
8756;BME280;4414;42.670;23.228;2022-08-18T05:26:46;44946.59;;;-137.01;60.65
8756;BME280;4414;42.670;23.228;2022-08-18T05:29:13;44919.81;;;-137.01;60.67
8756;BME280;4414;42.670;23.228;2022-08-18T05:31:40;44925.53;;;-137.01;60.25
8756;BME280;4414;42.670;23.228;2022-08-18T05:34:07;44933.19;;;-137.01;57.93
8756;BME280;4414;42.670;23.228;2022-08-18T05:36:49;44963.81;;;-137.01;58.76
8756;BME280;4414;42.670;23.228;2022-08-18T05:39:22;44944.66;;;-137.01;58.30
8756;BME280;4414;42.670;23.228;2022-08-18T05:41:51;44940.84;;;-137.01;59.45
8756;BME280;4414;42.670;23.228;2022-08-18T05:44:21;44948.50;;;-137.01;59.56
8756;BME280;4414;42.670;23.228;2022-08-18T05:46:52;44963.81;;;-137.01;58.89
8756;BME280;4414;42.670;23.228;2022-08-18T05:49:20;44944.66;;;-137.01;57.87
8756;BME280;4414;42.670;23.228;2022-08-18T05:51:52;44935.09;;;-137.01;57.27
8756;BME280;4414;42.670;23.228;2022-08-18T05:54:20;44938.94;;;-137.01;57.70
8756;BME280;4414;42.670;23.228;2022-08-18T05:57:14;44942.75;;;-137.01;57.21
8756;BME280;4414;42.670;23.228;2022-08-18T05:59:42;44961.88;;;-137.01;57.47
8756;BME280;4414;42.670;23.228;2022-08-18T06:02:14;44940.84;;;-137.01;55.89
8756;BME280;4414;42.670;23.228;2022-08-18T06:04:48;44977.19;;;-137.01;56.15
8756;BME280;4414;42.670;23.228;2022-08-18T06:07:18;44967.63;;;-137.01;55.69
8756;BME280;4414;42.670;23.228;2022-08-18T06:09:52;44952.31;;;-137.01;54.55
8756;BME280;4414;42.670;23.228;2022-08-18T06:12:26;44958.06;;;-137.01;54.89
8756;BME280;4414;42.670;23.228;2022-08-18T06:14:57;44933.19;;;-137.01;55.03
8756;BME280;4414;42.670;23.228;2022-08-18T06:17:36;44956.16;;;-137.01;53.72
8756;BME280;4414;42.670;23.228;2022-08-18T06:20:10;44961.88;;;-137.01;55.54
8756;BME280;4414;42.670;23.228;2022-08-18T06:22:50;44946.59;;;-137.01;55.21
8756;BME280;4414;42.670;23.228;2022-08-18T06:25:26;44963.81;;;-137.01;55.66
8756;BME280;4414;42.670;23.228;2022-08-18T06:28:02;44956.16;;;-137.01;55.49
8756;BME280;4414;42.670;23.228;2022-08-18T06:30:42;44971.44;;;-137.01;55.26
8756;BME280;4414;42.670;23.228;2022-08-18T06:33:18;44942.75;;;-137.01;55.64
8756;BME280;4414;42.670;23.228;2022-08-18T06:35:55;44954.25;;;-137.01;57.79
8756;BME280;4414;42.670;23.228;2022-08-18T06:38:40;44971.44;;;-137.01;55.38
8756;BME280;4414;42.670;23.228;2022-08-18T06:41:13;44938.94;;;-137.01;56.74
8756;BME280;4414;42.670;23.228;2022-08-18T06:43:58;44981.00;;;-137.01;56.87
8756;BME280;4414;42.670;23.228;2022-08-18T06:46:36;44971.44;;;-137.01;54.16
8756;BME280;4414;42.670;23.228;2022-08-18T06:49:09;44969.53;;;-137.01;55.58
8756;BME280;4414;42.670;23.228;2022-08-18T06:51:36;44977.19;;;-137.01;54.95
8756;BME280;4414;42.670;23.228;2022-08-18T06:54:06;44979.09;;;-137.01;53.57
8756;BME280;4414;42.670;23.228;2022-08-18T06:56:47;44956.16;;;-137.01;54.68
8756;BME280;4414;42.670;23.228;2022-08-18T06:59:21;44977.19;;;-137.01;56.47
8756;BME280;4414;42.670;23.228;2022-08-18T07:01:54;44967.63;;;-137.01;55.79
8756;BME280;4414;42.670;23.228;2022-08-18T07:04:37;44956.16;;;-137.01;56.48
8756;BME280;4414;42.670;23.228;2022-08-18T07:07:29;44963.81;;;-137.01;55.09
8756;BME280;4414;42.670;23.228;2022-08-18T07:09:58;44996.31;;;-137.01;54.61
8756;BME280;4414;42.670;23.228;2022-08-18T07:12:27;44988.66;;;-137.01;54.62
8756;BME280;4414;42.670;23.228;2022-08-18T07:14:56;44979.09;;;-137.01;53.31
8756;BME280;4414;42.670;23.228;2022-08-18T07:17:26;44990.56;;;-137.01;53.46
8756;BME280;4414;42.670;23.228;2022-08-18T07:20:02;44969.53;;;-137.01;54.57
8756;BME280;4414;42.670;23.228;2022-08-18T07:22:30;44977.19;;;-137.01;55.49
8756;BME280;4414;42.670;23.228;2022-08-18T07:25:00;44975.28;;;-137.01;54.43
8756;BME280;4414;42.670;23.228;2022-08-18T07:27:42;45003.97;;;-137.01;52.98
8756;BME280;4414;42.670;23.228;2022-08-18T07:30:11;44967.63;;;-137.01;53.48
8756;BME280;4414;42.670;23.228;2022-08-18T07:32:43;44992.50;;;-137.01;53.60
8756;BME280;4414;42.670;23.228;2022-08-18T07:35:15;44973.38;;;-137.01;52.78
8756;BME280;4414;42.670;23.228;2022-08-18T07:37:46;44994.41;;;-137.01;51.02
8756;BME280;4414;42.670;23.228;2022-08-18T07:40:22;44979.09;;;-137.01;53.66
8756;BME280;4414;42.670;23.228;2022-08-18T07:42:53;45025.00;;;-137.01;52.90
8756;BME280;4414;42.670;23.228;2022-08-18T07:45:26;44986.75;;;-137.01;51.85
8756;BME280;4414;42.670;23.228;2022-08-18T07:48:00;44979.09;;;-137.01;51.88
8756;BME280;4414;42.670;23.228;2022-08-18T07:50:33;44971.44;;;-137.01;50.01
8756;BME280;4414;42.670;23.228;2022-08-18T07:53:07;45002.06;;;-137.01;50.57
8756;BME280;4414;42.670;23.228;2022-08-18T07:55:41;45015.44;;;-137.01;50.02
8756;BME280;4414;42.670;23.228;2022-08-18T07:58:21;44990.56;;;-137.01;49.92
8756;BME280;4414;42.670;23.228;2022-08-18T08:00:54;45030.75;;;-137.01;49.16
8756;BME280;4414;42.670;23.228;2022-08-18T08:03:30;45005.88;;;-137.01;49.27
8756;BME280;4414;42.670;23.228;2022-08-18T08:06:04;44982.94;;;-137.01;49.64
8756;BME280;4414;42.670;23.228;2022-08-18T08:08:38;44982.94;;;-137.01;49.44
8756;BME280;4414;42.670;23.228;2022-08-18T08:11:16;45023.09;;;-137.01;49.73
8756;BME280;4414;42.670;23.228;2022-08-18T08:13:55;45000.13;;;-137.01;49.61
8756;BME280;4414;42.670;23.228;2022-08-18T08:16:34;45021.19;;;-137.01;48.26
8756;BME280;4414;42.670;23.228;2022-08-18T08:19:09;45034.56;;;-137.01;48.59
8756;BME280;4414;42.670;23.228;2022-08-18T08:21:46;45042.22;;;-137.01;47.60
8756;BME280;4414;42.670;23.228;2022-08-18T08:24:17;45030.75;;;-137.01;47.17
8756;BME280;4414;42.670;23.228;2022-08-18T08:26:51;45025.00;;;-137.01;43.87
8756;BME280;4414;42.670;23.228;2022-08-18T08:29:31;45007.78;;;-137.01;44.39
8756;BME280;4414;42.670;23.228;2022-08-18T08:32:03;45030.75;;;-137.01;45.24
8756;BME280;4414;42.670;23.228;2022-08-18T08:34:35;45051.78;;;-137.01;43.62
8756;BME280;4414;42.670;23.228;2022-08-18T08:37:08;45034.56;;;-137.01;42.44
8756;BME280;4414;42.670;23.228;2022-08-18T08:39:38;45021.19;;;-137.01;42.20
8756;BME280;4414;42.670;23.228;2022-08-18T08:42:14;45042.22;;;-137.01;43.34
8756;BME280;4414;42.670;23.228;2022-08-18T08:44:45;45076.66;;;-137.01;41.72
8756;BME280;4414;42.670;23.228;2022-08-18T08:47:16;45047.97;;;-137.01;41.29
8756;BME280;4414;42.670;23.228;2022-08-18T08:49:48;45036.47;;;-137.01;42.57
8756;BME280;4414;42.670;23.228;2022-08-18T08:52:21;45067.09;;;-137.01;41.60
8756;BME280;4414;42.670;23.228;2022-08-18T08:54:52;45061.34;;;-137.01;41.21
8756;BME280;4414;42.670;23.228;2022-08-18T08:57:25;45090.03;;;-137.01;40.95
8756;BME280;4414;42.670;23.228;2022-08-18T08:59:54;45057.53;;;-137.01;41.85
8756;BME280;4414;42.670;23.228;2022-08-18T09:02:30;45047.97;;;-137.01;41.39
8756;BME280;4414;42.670;23.228;2022-08-18T09:05:06;45057.53;;;-137.01;41.53
8756;BME280;4414;42.670;23.228;2022-08-18T09:07:58;45059.44;;;-137.01;39.32
8756;BME280;4414;42.670;23.228;2022-08-18T09:10:41;45090.03;;;-137.01;39.98
8756;BME280;4414;42.670;23.228;2022-08-18T09:13:40;45084.31;;;-137.01;40.26
8756;BME280;4414;42.670;23.228;2022-08-18T09:16:21;45065.19;;;-137.01;38.17
8756;BME280;4414;42.670;23.228;2022-08-18T09:19:03;45070.91;;;-137.01;38.34
8756;BME280;4414;42.670;23.228;2022-08-18T09:21:40;45069.00;;;-137.01;38.18
8756;BME280;4414;42.670;23.228;2022-08-18T09:24:20;45063.25;;;-137.01;38.56
8756;BME280;4414;42.670;23.228;2022-08-18T09:26:50;45070.91;;;-137.01;38.17
8756;BME280;4414;42.670;23.228;2022-08-18T09:29:23;45076.66;;;-137.01;38.64
8756;BME280;4414;42.670;23.228;2022-08-18T09:34:59;45084.31;;;-137.01;37.53
8756;BME280;4414;42.670;23.228;2022-08-18T09:37:41;45082.41;;;-137.01;37.55
8756;BME280;4414;42.670;23.228;2022-08-18T09:40:14;45084.31;;;-137.01;38.12
8756;BME280;4414;42.670;23.228;2022-08-18T09:43:10;45061.34;;;-137.01;38.53
8756;BME280;4414;42.670;23.228;2022-08-18T09:45:56;45069.00;;;-137.01;38.93
8756;BME280;4414;42.670;23.228;2022-08-18T09:48:27;45063.25;;;-137.01;37.74
8756;BME280;4414;42.670;23.228;2022-08-18T09:51:20;45067.09;;;-137.01;37.67
8756;BME280;4414;42.670;23.228;2022-08-18T09:54:18;45047.97;;;-137.01;35.93
8756;BME280;4414;42.670;23.228;2022-08-18T09:57:19;45053.69;;;-137.01;37.43
8756;BME280;4414;42.670;23.228;2022-08-18T10:05:39;45095.78;;;-137.01;37.63
8756;BME280;4414;42.670;23.228;2022-08-18T10:08:33;45095.78;;;-137.01;37.25
8756;BME280;4414;42.670;23.228;2022-08-18T10:11:19;45105.34;;;-137.01;37.82
8756;BME280;4414;42.670;23.228;2022-08-18T10:14:01;45080.47;;;-137.01;36.54
8756;BME280;4414;42.670;23.228;2022-08-18T10:16:35;45093.88;;;-137.01;37.13
8756;BME280;4414;42.670;23.228;2022-08-18T10:19:13;45114.91;;;-137.01;37.11
8756;BME280;4414;42.670;23.228;2022-08-18T10:22:05;45105.34;;;-137.01;35.89
8756;BME280;4414;42.670;23.228;2022-08-18T10:24:37;45103.44;;;-137.01;36.01
8756;BME280;4414;42.670;23.228;2022-08-18T10:27:08;45105.34;;;-137.01;35.18
8756;BME280;4414;42.670;23.228;2022-08-18T10:29:51;45097.69;;;-137.01;35.70
8756;BME280;4414;42.670;23.228;2022-08-18T10:32:43;45090.03;;;-137.01;35.96
8756;BME280;4414;42.670;23.228;2022-08-18T10:38:40;45113.00;;;-137.01;36.42
8756;BME280;4414;42.670;23.228;2022-08-18T10:41:17;45118.75;;;-137.01;36.52
8756;BME280;4414;42.670;23.228;2022-08-18T10:43:47;45109.16;;;-137.01;36.18
8756;BME280;4414;42.670;23.228;2022-08-18T10:46:17;45120.66;;;-137.01;36.89
8756;BME280;4414;42.670;23.228;2022-08-18T10:48:58;45093.88;;;-137.01;36.53
8756;BME280;4414;42.670;23.228;2022-08-18T10:51:31;45107.25;;;-137.01;35.61
8756;BME280;4414;42.670;23.228;2022-08-18T10:54:11;45109.16;;;-137.01;34.81
8756;BME280;4414;42.670;23.228;2022-08-18T10:56:45;45105.34;;;-137.01;35.81
8756;BME280;4414;42.670;23.228;2022-08-18T10:59:20;45130.22;;;-137.01;35.84
8756;BME280;4414;42.670;23.228;2022-08-18T11:02:03;45113.00;;;-137.01;35.37
8756;BME280;4414;42.670;23.228;2022-08-18T11:04:40;45118.75;;;-137.01;35.98
8756;BME280;4414;42.670;23.228;2022-08-18T11:07:11;45114.91;;;-137.01;35.70
8756;BME280;4414;42.670;23.228;2022-08-18T11:09:42;45118.75;;;-137.01;34.25
8756;BME280;4414;42.670;23.228;2022-08-18T11:12:11;45132.13;;;-137.01;33.62
8756;BME280;4414;42.670;23.228;2022-08-18T11:15:07;45135.94;;;-137.01;33.09
8756;BME280;4414;42.670;23.228;2022-08-18T11:17:48;45162.72;;;-137.01;33.52
8756;BME280;4414;42.670;23.228;2022-08-18T11:20:20;45143.59;;;-137.01;33.75
8756;BME280;4414;42.670;23.228;2022-08-18T11:22:50;45143.59;;;-137.01;33.49
8756;BME280;4414;42.670;23.228;2022-08-18T11:25:23;45135.94;;;-137.01;33.84
8756;BME280;4414;42.670;23.228;2022-08-18T11:27:51;45170.38;;;-137.01;34.86
8756;BME280;4414;42.670;23.228;2022-08-18T11:30:18;45160.81;;;-137.01;34.22
8756;BME280;4414;42.670;23.228;2022-08-18T11:32:48;45158.91;;;-137.01;33.13
8756;BME280;4414;42.670;23.228;2022-08-18T11:35:18;45145.53;;;-137.01;34.34
8756;BME280;4414;42.670;23.228;2022-08-18T11:37:47;45143.59;;;-137.01;33.34
8756;BME280;4414;42.670;23.228;2022-08-18T11:40:29;45134.03;;;-137.01;34.89
8756;BME280;4414;42.670;23.228;2022-08-18T11:43:01;45137.88;;;-137.01;34.50
8756;BME280;4414;42.670;23.228;2022-08-18T11:45:32;45158.91;;;-137.01;35.21
8756;BME280;4414;42.670;23.228;2022-08-18T11:48:10;45157.00;;;-137.01;33.46
8756;BME280;4414;42.670;23.228;2022-08-18T11:50:46;45155.09;;;-137.01;32.46
8756;BME280;4414;42.670;23.228;2022-08-18T11:53:15;45143.59;;;-137.01;34.40
8756;BME280;4414;42.670;23.228;2022-08-18T11:56:04;45162.72;;;-137.01;34.07
8756;BME280;4414;42.670;23.228;2022-08-18T11:58:39;45193.34;;;-137.01;33.53
8756;BME280;4414;42.670;23.228;2022-08-18T12:01:06;45160.81;;;-137.01;32.24
8756;BME280;4414;42.670;23.228;2022-08-18T12:03:39;45147.44;;;-137.01;33.31
8756;BME280;4414;42.670;23.228;2022-08-18T12:06:17;45128.31;;;-137.01;34.46
8756;BME280;4414;42.670;23.228;2022-08-18T12:08:51;45090.03;;;-137.01;34.50
8756;BME280;4414;42.670;23.228;2022-08-18T12:11:23;45105.34;;;-137.01;36.70
8756;BME280;4414;42.670;23.228;2022-08-18T12:13:58;45107.25;;;-137.01;37.77
8756;BME280;4414;42.670;23.228;2022-08-18T12:16:35;45093.88;;;-137.01;39.16
8756;BME280;4414;42.670;23.228;2022-08-18T12:19:03;45084.31;;;-137.01;36.42
8756;BME280;4414;42.670;23.228;2022-08-18T12:21:31;45105.34;;;-137.01;34.77
8756;BME280;4414;42.670;23.228;2022-08-18T12:23:57;45137.88;;;-137.01;35.37
8756;BME280;4414;42.670;23.228;2022-08-18T12:26:26;45128.31;;;-137.01;34.52
8756;BME280;4414;42.670;23.228;2022-08-18T12:28:52;45109.16;;;-137.01;34.90
8756;BME280;4414;42.670;23.228;2022-08-18T12:31:19;45101.53;;;-137.01;34.92
8756;BME280;4414;42.670;23.228;2022-08-18T12:33:46;45128.31;;;-137.01;34.05
8756;BME280;4414;42.670;23.228;2022-08-18T12:36:12;45135.94;;;-137.01;33.35
8756;BME280;4414;42.670;23.228;2022-08-18T12:38:40;45128.31;;;-137.01;34.20
8756;BME280;4414;42.670;23.228;2022-08-18T12:41:08;45116.81;;;-137.01;33.29
8756;BME280;4414;42.670;23.228;2022-08-18T12:43:38;45111.09;;;-137.01;33.51
8756;BME280;4414;42.670;23.228;2022-08-18T12:46:05;45116.81;;;-137.01;34.12
8756;BME280;4414;42.670;23.228;2022-08-18T12:48:32;45139.78;;;-137.01;33.45
8756;BME280;4414;42.670;23.228;2022-08-18T12:50:59;45132.13;;;-137.01;33.26
8756;BME280;4414;42.670;23.228;2022-08-18T12:53:26;45101.53;;;-137.01;32.93
8756;BME280;4414;42.670;23.228;2022-08-18T12:55:54;45132.13;;;-137.01;33.57
8756;BME280;4414;42.670;23.228;2022-08-18T12:58:21;45122.56;;;-137.01;34.43
8756;BME280;4414;42.670;23.228;2022-08-18T13:00:49;45109.16;;;-137.01;34.52
8756;BME280;4414;42.670;23.228;2022-08-18T13:03:16;45116.81;;;-137.01;34.42
8756;BME280;4414;42.670;23.228;2022-08-18T13:05:43;45120.66;;;-137.01;34.44
8756;BME280;4414;42.670;23.228;2022-08-18T13:08:15;45113.00;;;-137.01;34.20
8756;BME280;4414;42.670;23.228;2022-08-18T13:10:43;45105.34;;;-137.01;33.09
8756;BME280;4414;42.670;23.228;2022-08-18T13:13:10;45130.22;;;-137.01;33.78
8756;BME280;4414;42.670;23.228;2022-08-18T13:15:36;45109.16;;;-137.01;33.17
8756;BME280;4414;42.670;23.228;2022-08-18T13:18:06;45141.69;;;-137.01;33.86
8756;BME280;4414;42.670;23.228;2022-08-18T13:20:32;45126.38;;;-137.01;33.72
8756;BME280;4414;42.670;23.228;2022-08-18T13:23:00;45153.16;;;-137.01;33.47
8756;BME280;4414;42.670;23.228;2022-08-18T13:25:27;45132.13;;;-137.01;32.64
8756;BME280;4414;42.670;23.228;2022-08-18T13:27:54;45147.44;;;-137.01;33.11